Time;durP1;ratioP1;P1;durP2;ratioP2;P2;SDS_P1;SDS_P2;PMS_P1;PMS_P2;Temp;Humidity;BMP_temperature;BMP_pressure;BME280_temperature;BME280_humidity;BME280_pressure;Samples;Min_cycle;Max_cycle;Signal;HPM_P1;HPM_P2
2023/03/08 00:01:13;;;;;;;11.03;5.47;;;;;;;2.07;100.00;94813.84;5036838;28;21038;-82
2023/03/08 00:04:08;;;;;;;11.40;5.97;;;;;;;2.06;100.00;94814.81;5053422;28;20521;-83
2023/03/08 00:06:34;;;;;;;10.67;5.63;;;;;;;2.03;100.00;94822.88;5065512;28;20459;-82
2023/03/08 00:09:04;;;;;;;11.00;5.60;;;;;;;2.04;100.00;94825.31;5073774;28;20447;-82
2023/03/08 00:11:32;;;;;;;13.20;6.27;;;;;;;2.03;100.00;94821.09;5093849;28;21022;-82
2023/03/08 00:14:02;;;;;;;12.97;6.20;;;;;;;1.96;100.00;94814.84;5069440;28;20549;-82
2023/03/08 00:16:28;;;;;;;16.13;7.10;;;;;;;1.92;100.00;94834.25;5071215;28;20479;-83
2023/03/08 00:18:54;;;;;;;12.50;6.50;;;;;;;1.87;100.00;94823.47;5069184;28;20601;-83
2023/03/08 00:21:22;;;;;;;12.67;5.80;;;;;;;1.89;100.00;94824.16;5087008;28;20536;-82
2023/03/08 00:23:52;;;;;;;11.50;6.07;;;;;;;1.76;100.00;94826.22;5085394;28;20484;-83
2023/03/08 00:26:18;;;;;;;12.50;6.53;;;;;;;1.73;100.00;94824.72;5049333;28;20456;-83
2023/03/08 00:28:46;;;;;;;11.80;6.10;;;;;;;1.82;100.00;94830.88;5072810;28;21091;-81
2023/03/08 00:31:12;;;;;;;12.20;6.30;;;;;;;1.74;100.00;94839.31;5070593;28;20033;-83
2023/03/08 00:33:38;;;;;;;12.30;6.27;;;;;;;1.73;100.00;94844.66;5052085;28;20494;-83
2023/03/08 00:36:11;;;;;;;12.50;6.57;;;;;;;1.72;100.00;94843.84;5053206;28;20459;-83
2023/03/08 00:38:40;;;;;;;12.27;6.60;;;;;;;1.73;100.00;94832.50;5057244;28;20471;-83
2023/03/08 00:41:07;;;;;;;11.97;6.07;;;;;;;1.83;100.00;94833.31;5052145;28;20448;-83
2023/03/08 00:43:33;;;;;;;14.80;6.27;;;;;;;1.75;100.00;94838.38;5086411;28;20838;-83
2023/03/08 00:46:02;;;;;;;13.70;6.03;;;;;;;1.81;100.00;94836.97;5086529;28;20490;-83
2023/03/08 00:48:28;;;;;;;17.00;6.67;;;;;;;1.83;100.00;94837.66;5083019;28;21004;-83
2023/03/08 00:50:54;;;;;;;10.13;5.57;;;;;;;1.88;100.00;94833.72;5052645;28;20478;-82
2023/03/08 00:53:19;;;;;;;11.83;6.00;;;;;;;1.97;100.00;94834.63;5039288;28;20032;-82
2023/03/08 00:55:51;;;;;;;11.13;6.40;;;;;;;1.89;100.00;94831.94;5053305;28;20546;-82
2023/03/08 00:58:17;;;;;;;11.90;6.30;;;;;;;1.99;100.00;94832.72;5050643;28;20036;-82
2023/03/08 01:00:44;;;;;;;13.70;7.03;;;;;;;1.96;100.00;94830.41;5054144;28;20434;-83
2023/03/08 01:03:10;;;;;;;15.23;7.73;;;;;;;2.02;100.00;94827.25;5057857;28;20451;-82
2023/03/08 01:05:44;;;;;;;14.03;6.53;;;;;;;2.03;100.00;94823.69;5075454;28;20550;-83
2023/03/08 01:08:11;;;;;;;13.37;5.73;;;;;;;2.06;100.00;94832.97;5052561;28;21024;-82
2023/03/08 01:10:38;;;;;;;14.20;6.67;;;;;;;2.13;100.00;94834.84;5068815;28;20483;-82
2023/03/08 01:13:05;;;;;;;13.87;7.23;;;;;;;2.09;100.00;94828.31;5043047;28;20036;-83
2023/03/08 01:15:36;;;;;;;13.03;6.57;;;;;;;2.08;100.00;94824.09;5074863;28;20463;-83
2023/03/08 01:18:04;;;;;;;11.87;6.30;;;;;;;2.08;100.00;94811.13;5070038;28;20464;-83
2023/03/08 01:20:30;;;;;;;13.33;6.83;;;;;;;2.17;100.00;94803.44;5053472;28;20781;-82
2023/03/08 01:23:02;;;;;;;11.50;6.60;;;;;;;2.10;100.00;94804.00;5054116;28;20483;-82
2023/03/08 01:25:29;;;;;;;15.50;7.90;;;;;;;2.13;100.00;94787.34;5052780;28;20507;-83
2023/03/08 01:27:56;;;;;;;12.70;6.43;;;;;;;2.09;100.00;94784.22;5062067;28;20439;-83
2023/03/08 01:30:21;;;;;;;13.67;6.83;;;;;;;2.02;100.00;94790.13;5062042;28;20482;-82
2023/03/08 01:32:47;;;;;;;10.90;6.13;;;;;;;2.00;100.00;94785.09;5047696;28;20037;-83
2023/03/08 01:35:13;;;;;;;14.97;6.93;;;;;;;1.94;100.00;94793.41;5084600;28;20126;-83
2023/03/08 01:37:40;;;;;;;13.07;7.50;;;;;;;1.89;100.00;94790.47;5074878;28;20106;-82
2023/03/08 01:40:07;;;;;;;13.57;7.00;;;;;;;1.84;100.00;94787.47;5054214;28;20088;-82
2023/03/08 01:42:33;;;;;;;14.83;6.23;;;;;;;1.82;100.00;94779.84;5042766;28;20868;-83
2023/03/08 01:45:03;;;;;;;14.37;6.97;;;;;;;1.76;100.00;94782.19;5051191;28;20572;-83
2023/03/08 01:47:37;;;;;;;12.50;6.40;;;;;;;1.78;100.00;94778.50;5051087;28;20407;-83
2023/03/08 01:50:13;;;;;;;11.97;6.97;;;;;;;1.64;100.00;94776.31;5051851;28;20479;-82
2023/03/08 01:52:49;;;;;;;14.37;6.47;;;;;;;1.72;100.00;94786.00;5051184;28;20554;-83
2023/03/08 01:55:16;;;;;;;15.43;7.10;;;;;;;1.66;100.00;94784.78;5051242;28;20486;-83
2023/03/08 01:57:50;;;;;;;13.27;6.60;;;;;;;1.57;100.00;94773.47;5083394;28;20501;-82
2023/03/08 02:00:23;;;;;;;15.27;7.03;;;;;;;1.54;100.00;94775.53;5041898;28;20471;-82
2023/03/08 02:02:58;;;;;;;12.30;7.20;;;;;;;1.52;100.00;94767.09;5067906;28;20037;-82
2023/03/08 02:05:28;;;;;;;13.32;6.88;;;;;;;1.50;100.00;94772.41;5084535;28;20459;-82
2023/03/08 02:08:00;;;;;;;13.90;7.03;;;;;;;1.47;100.00;94767.50;5036545;28;20036;-82
2023/03/08 02:10:31;;;;;;;14.33;7.23;;;;;;;1.39;100.00;94762.22;5076885;28;20475;-83
2023/03/08 02:12:57;;;;;;;15.37;7.20;;;;;;;1.44;100.00;94760.00;5051550;28;20828;-83
2023/03/08 02:15:36;;;;;;;11.27;6.73;;;;;;;1.48;100.00;94750.22;5050685;28;20555;-83
2023/03/08 02:18:02;;;;;;;13.40;6.60;;;;;;;1.47;100.00;94749.38;5049257;28;20132;-83
2023/03/08 02:20:36;;;;;;;15.27;7.43;;;;;;;1.38;100.00;94750.22;5067733;28;21253;-82
2023/03/08 02:23:21;;;;;;;13.67;7.40;;;;;;;1.36;100.00;94759.91;5039601;28;20033;-82
2023/03/08 02:26:05;;;;;;;14.47;6.63;;;;;;;1.37;100.00;94754.56;5050598;28;21023;-83
2023/03/08 02:28:32;;;;;;;13.10;6.70;;;;;;;1.34;100.00;94754.03;5040027;28;20545;-83
2023/03/08 02:30:58;;;;;;;14.77;7.97;;;;;;;1.32;100.00;94759.38;5084504;28;20869;-83
2023/03/08 02:33:24;;;;;;;13.87;7.20;;;;;;;1.26;100.00;94753.91;5046202;28;20452;-82
2023/03/08 02:35:52;;;;;;;13.60;7.80;;;;;;;1.33;100.00;94763.59;5045522;28;20058;-83
2023/03/08 02:38:19;;;;;;;15.70;7.23;;;;;;;1.20;100.00;94763.06;5050242;28;20036;-82
2023/03/08 02:40:45;;;;;;;12.97;6.47;;;;;;;1.18;100.00;94749.44;5050203;28;20452;-83
2023/03/08 02:43:12;;;;;;;14.53;7.10;;;;;;;1.16;100.00;94756.53;5050570;28;20835;-83
2023/03/08 02:45:47;;;;;;;13.40;7.27;;;;;;;1.16;100.00;94749.56;5066818;28;20577;-82
2023/03/08 02:48:14;;;;;;;12.70;6.77;;;;;;;1.19;100.00;94740.72;5083307;28;20463;-83
2023/03/08 02:50:40;;;;;;;14.37;7.17;;;;;;;1.10;100.00;94742.34;5049512;28;20483;-83
2023/03/08 02:53:07;;;;;;;15.70;7.93;;;;;;;1.11;100.00;94736.22;5066324;28;20463;-83
2023/03/08 02:55:36;;;;;;;14.57;7.13;;;;;;;1.08;100.00;94726.16;5083748;28;20462;-83
2023/03/08 02:58:09;;;;;;;13.30;6.47;;;;;;;1.15;100.00;94724.63;5049227;28;20499;-84
2023/03/08 03:00:35;;;;;;;13.10;7.47;;;;;;;1.12;100.00;94721.50;5067059;28;20455;-83
2023/03/08 03:03:08;;;;;;;19.03;7.60;;;;;;;1.15;100.00;94727.22;5049491;28;20480;-83
2023/03/08 03:05:33;;;;;;;15.30;8.00;;;;;;;1.09;100.00;94726.97;5072529;28;20459;-83
2023/03/08 03:08:03;;;;;;;12.70;6.43;;;;;;;1.08;100.00;94723.56;5049566;28;20064;-83
2023/03/08 03:10:29;;;;;;;16.37;8.43;;;;;;;1.03;100.00;94725.72;5057929;28;20518;-83
2023/03/08 03:12:55;;;;;;;15.50;8.53;;;;;;;1.05;100.00;94723.84;5049004;28;21017;-82
2023/03/08 03:15:24;;;;;;;14.47;7.40;;;;;;;1.11;100.00;94723.28;5071241;28;20029;-83
2023/03/08 03:17:56;;;;;;;11.93;6.50;;;;;;;1.17;100.00;94717.56;5066991;28;20451;-82
2023/03/08 03:20:22;;;;;;;12.20;7.07;;;;;;;1.22;100.00;94711.13;5068581;28;20463;-83
2023/03/08 03:22:48;;;;;;;16.47;9.47;;;;;;;1.12;100.00;94709.38;5049521;28;20455;-83
2023/03/08 03:25:15;;;;;;;14.00;8.37;;;;;;;1.15;100.00;94710.88;5067970;28;20644;-83
2023/03/08 03:27:43;;;;;;;12.63;6.73;;;;;;;1.15;100.00;94711.69;5051416;28;20491;-83
2023/03/08 03:30:09;;;;;;;14.77;7.53;;;;;;;1.20;100.00;94710.44;5051672;28;20503;-83
2023/03/08 03:32:35;;;;;;;13.23;7.23;;;;;;;1.21;100.00;94699.13;5067847;28;20040;-82
2023/03/08 03:35:01;;;;;;;15.53;7.20;;;;;;;1.19;100.00;94696.69;5067043;28;20464;-83
2023/03/08 03:37:28;;;;;;;15.83;7.77;;;;;;;1.15;100.00;94698.75;5083893;28;20033;-82
2023/03/08 03:39:54;;;;;;;12.80;6.70;;;;;;;1.22;100.00;94699.00;5037458;28;20529;-83
2023/03/08 03:42:20;;;;;;;16.40;7.87;;;;;;;1.24;100.00;94696.25;5040623;28;20467;-83
2023/03/08 03:44:52;;;;;;;14.90;7.90;;;;;;;1.18;100.00;94690.69;5051617;28;20029;-82
2023/03/08 03:47:20;;;;;;;14.00;7.67;;;;;;;1.18;100.00;94692.47;5053571;28;20715;-82
2023/03/08 03:49:47;;;;;;;15.53;8.03;;;;;;;1.18;100.00;94692.47;5053643;28;20487;-83
2023/03/08 03:52:15;;;;;;;14.50;7.83;;;;;;;1.23;100.00;94690.28;5067999;28;20534;-82
2023/03/08 03:54:49;;;;;;;;;;;;;;;1.26;100.00;94689.19;5084725;28;20466;-83
2023/03/08 03:57:14;;;;;;;12.67;7.10;;;;;;;1.29;100.00;94688.91;5050711;28;20277;-83
2023/03/08 03:59:41;;;;;;;13.97;7.37;;;;;;;1.26;100.00;94684.81;5051000;28;20032;-84
2023/03/08 04:02:07;;;;;;;17.17;7.80;;;;;;;1.18;100.00;94679.53;5050886;28;20478;-83
2023/03/08 04:04:40;;;;;;;14.77;7.10;;;;;;;1.22;100.00;94678.28;5043978;28;20984;-83
2023/03/08 04:07:07;;;;;;;17.00;7.60;;;;;;;1.25;100.00;94677.19;5085299;28;20481;-83
2023/03/08 04:09:38;;;;;;;12.87;6.57;;;;;;;1.31;100.00;94680.03;5059561;28;20578;-83
2023/03/08 04:12:30;;;;;;;15.30;7.73;;;;;;;1.29;100.00;94668.19;5076216;28;20467;-83
2023/03/08 04:14:56;;;;;;;13.50;7.63;;;;;;;1.33;100.00;94661.75;5065967;28;20482;-83
2023/03/08 04:17:28;;;;;;;15.93;8.63;;;;;;;1.27;100.00;94659.72;5083934;28;20475;-83
2023/03/08 04:19:55;;;;;;;15.90;7.23;;;;;;;1.34;100.00;94653.03;5082131;28;20467;-82
2023/03/08 04:22:21;;;;;;;14.33;6.90;;;;;;;1.30;100.00;94660.25;5053999;28;20790;-83
2023/03/08 04:24:54;;;;;;;14.50;7.37;;;;;;;1.22;100.00;94647.22;5050696;28;20471;-83
2023/03/08 04:27:35;;;;;;;15.07;7.05;;;;;;;1.13;100.00;94643.69;5049066;28;21091;-83
2023/03/08 04:30:02;;;;;;;17.83;8.03;;;;;;;1.09;100.00;94639.75;5048606;28;20041;-83
2023/03/08 04:32:31;;;;;;;15.20;8.20;;;;;;;1.07;100.00;94625.31;5048218;28;21020;-83
2023/03/08 04:35:00;;;;;;;16.30;8.77;;;;;;;1.13;100.00;94622.97;5082196;28;20471;-82
2023/03/08 04:37:29;;;;;;;20.53;9.57;;;;;;;1.05;100.00;94619.47;5048042;28;20463;-83
2023/03/08 04:40:08;;;;;;;11.70;6.10;;;;;;;1.01;100.00;94615.53;5048320;28;20989;-83
2023/03/08 04:42:39;;;;;;;20.50;10.17;;;;;;;1.00;100.00;94617.28;5046097;28;20074;-83
2023/03/08 04:45:08;;;;;;;16.87;9.43;;;;;;;1.06;100.00;94621.09;5074063;28;20474;-83
2023/03/08 04:47:33;;;;;;;19.83;10.67;;;;;;;0.98;100.00;94623.59;5069048;28;20486;-82
2023/03/08 04:49:59;;;;;;;30.27;16.30;;;;;;;1.04;100.00;94613.50;5052284;28;20469;-83
2023/03/08 04:52:25;;;;;;;19.97;10.83;;;;;;;0.95;100.00;94614.31;5049121;28;20537;-83
2023/03/08 04:54:51;;;;;;;23.57;11.70;;;;;;;0.91;100.00;94618.16;5050460;28;20033;-83
2023/03/08 04:57:24;;;;;;;31.43;15.10;;;;;;;0.85;100.00;94618.72;5053988;28;21045;-83
2023/03/08 04:59:55;;;;;;;21.97;11.77;;;;;;;0.84;100.00;94619.66;5058292;28;20459;-83
2023/03/08 05:02:22;;;;;;;20.07;10.87;;;;;;;0.88;100.00;94613.25;5061501;28;20459;-83
2023/03/08 05:04:51;;;;;;;16.57;8.50;;;;;;;0.89;100.00;94612.28;5037339;28;20467;-83
2023/03/08 05:07:29;;;;;;;15.37;9.60;;;;;;;0.85;100.00;94614.34;5054230;28;20493;-83
2023/03/08 05:09:56;;;;;;;15.60;8.97;;;;;;;0.89;100.00;94613.09;5052316;28;20487;-83
2023/03/08 05:12:23;;;;;;;14.60;8.33;;;;;;;0.84;100.00;94606.72;5052259;28;21043;-83
2023/03/08 05:14:53;;;;;;;15.63;9.20;;;;;;;0.89;100.00;94609.72;5051691;28;20846;-83
2023/03/08 05:17:19;;;;;;;13.27;7.83;;;;;;;0.89;100.00;94600.16;5052412;28;20459;-83
2023/03/08 05:19:45;;;;;;;14.33;7.27;;;;;;;0.91;100.00;94597.44;5088183;28;20778;-83
2023/03/08 05:22:13;;;;;;;15.23;8.17;;;;;;;0.92;100.00;94583.53;5068297;28;20029;-83
2023/03/08 05:24:45;;;;;;;12.73;7.40;;;;;;;0.89;100.00;94583.81;5055161;28;20463;-83
2023/03/08 05:27:12;;;;;;;13.07;7.50;;;;;;;0.87;100.00;94581.38;5054895;28;20447;-83
2023/03/08 05:29:54;;;;;;;12.80;7.10;;;;;;;0.94;100.00;94573.88;5044816;28;20479;-84
2023/03/08 05:32:21;;;;;;;12.20;6.40;;;;;;;0.87;100.00;94568.44;5044618;28;20460;-83
2023/03/08 05:34:51;;;;;;;11.77;6.77;;;;;;;0.90;100.00;94573.31;5067429;28;20486;-82
2023/03/08 05:37:24;;;;;;;13.77;6.80;;;;;;;0.83;100.00;94574.03;5062982;28;20470;-83
2023/03/08 05:39:57;;;;;;;13.87;7.87;;;;;;;0.89;100.00;94576.06;5054309;28;20447;-82
2023/03/08 05:42:23;;;;;;;17.07;8.77;;;;;;;0.89;100.00;94574.28;5067786;28;20436;-83
2023/03/08 05:44:49;;;;;;;13.97;6.90;;;;;;;0.95;100.00;94572.91;5063030;28;20439;-83
2023/03/08 05:47:19;;;;;;;15.57;7.00;;;;;;;0.94;100.00;94566.94;5051921;28;20021;-83
2023/03/08 05:49:45;;;;;;;11.77;6.80;;;;;;;0.88;100.00;94567.47;5051439;28;20468;-83
2023/03/08 05:52:11;;;;;;;22.10;11.40;;;;;;;0.94;100.00;94558.34;5047520;28;20030;-83
2023/03/08 05:54:38;;;;;;;24.43;12.20;;;;;;;1.02;100.00;94553.28;5049948;28;20833;-83
2023/03/08 05:57:08;;;;;;;19.50;9.40;;;;;;;1.07;100.00;94556.22;5043578;28;20063;-83
2023/03/08 05:59:36;;;;;;;18.53;11.13;;;;;;;1.11;100.00;94552.41;5083966;28;20833;-83
2023/03/08 06:02:03;;;;;;;26.23;14.47;;;;;;;1.11;100.00;94549.84;5050878;28;20479;-84
2023/03/08 06:04:36;;;;;;;21.30;12.55;;;;;;;1.16;100.00;94560.56;5067468;28;21211;-84
2023/03/08 06:07:02;;;;;;;16.33;8.83;;;;;;;1.24;100.00;94561.63;5035754;28;20041;-83
2023/03/08 06:09:39;;;;;;;13.80;7.50;;;;;;;1.34;100.00;94562.38;5076909;28;20021;-83
2023/03/08 06:12:09;;;;;;;15.97;8.27;;;;;;;1.38;100.00;94559.38;5050954;28;20531;-83
2023/03/08 06:14:35;;;;;;;13.30;7.60;;;;;;;1.52;100.00;94563.25;5051500;28;20495;-83
2023/03/08 06:17:01;;;;;;;17.13;8.13;;;;;;;1.56;100.00;94564.59;5050430;28;20491;-83
2023/03/08 06:19:29;;;;;;;17.80;8.07;;;;;;;1.63;100.00;94560.44;5055424;28;20033;-84
2023/03/08 06:22:07;;;;;;;13.47;7.80;;;;;;;1.62;100.00;94561.41;5050461;28;20856;-83
2023/03/08 06:24:34;;;;;;;18.87;8.53;;;;;;;1.63;100.00;94568.22;5045320;28;20471;-84
2023/03/08 06:27:02;;;;;;;15.03;8.43;;;;;;;1.72;100.00;94561.38;5051145;28;20466;-83
2023/03/08 06:29:28;;;;;;;15.07;8.27;;;;;;;1.77;100.00;94559.13;5050160;28;20942;-83
2023/03/08 06:31:54;;;;;;;15.90;8.03;;;;;;;1.81;100.00;94562.25;5050171;28;20127;-83
2023/03/08 06:34:21;;;;;;;16.33;8.93;;;;;;;1.87;100.00;94559.88;5074954;28;20494;-83
2023/03/08 06:37:08;;;;;;;17.37;9.53;;;;;;;1.87;100.00;94553.88;5086512;28;20460;-83
2023/03/08 06:39:33;;;;;;;20.83;10.00;;;;;;;1.91;100.00;94552.63;5050449;28;21008;-82
2023/03/08 06:42:02;;;;;;;20.30;10.30;;;;;;;1.92;100.00;94551.69;5052003;28;20541;-82
2023/03/08 06:44:41;;;;;;;18.60;9.73;;;;;;;1.92;100.00;94562.06;5050881;28;20458;-82
2023/03/08 06:47:08;;;;;;;18.87;8.63;;;;;;;1.92;100.00;94551.69;5069534;28;20483;-82
2023/03/08 06:49:34;;;;;;;15.53;9.00;;;;;;;1.85;100.00;94548.06;5050515;28;20467;-83
2023/03/08 06:52:00;;;;;;;16.50;9.00;;;;;;;1.86;100.00;94541.91;5066857;28;20489;-82
2023/03/08 06:54:27;;;;;;;17.83;9.43;;;;;;;1.75;100.00;94552.50;5050679;28;20467;-82
2023/03/08 06:57:00;;;;;;;18.93;9.30;;;;;;;1.74;100.00;94550.84;5050162;28;20470;-83
2023/03/08 06:59:26;;;;;;;19.57;10.30;;;;;;;1.71;100.00;94561.50;5046699;28;20029;-82
2023/03/08 07:01:52;;;;;;;17.23;10.00;;;;;;;1.55;100.00;94568.16;5063298;28;20452;-82
2023/03/08 07:04:17;;;;;;;25.77;12.97;;;;;;;1.48;100.00;94563.69;5057301;28;20071;-82
2023/03/08 07:06:44;;;;;;;23.03;11.37;;;;;;;1.37;100.00;94564.69;5073844;28;20029;-83
2023/03/08 07:09:09;;;;;;;20.97;11.57;;;;;;;1.32;100.00;94557.38;5088575;28;20098;-83
2023/03/08 07:11:37;;;;;;;27.00;14.30;;;;;;;1.26;100.00;94554.53;5072288;28;20456;-83
2023/03/08 07:14:03;;;;;;;21.73;11.63;;;;;;;1.37;100.00;94539.59;5040231;28;20048;-82
2023/03/08 07:16:29;;;;;;;21.37;12.50;;;;;;;1.34;100.00;94536.47;5057110;28;20451;-83
2023/03/08 07:18:55;;;;;;;25.23;14.10;;;;;;;1.34;100.00;94541.66;5038711;28;20032;-83
2023/03/08 07:21:22;;;;;;;24.53;12.80;;;;;;;1.40;100.00;94536.72;5054060;28;20037;-82
2023/03/08 07:23:51;;;;;;;22.97;13.57;;;;;;;1.48;100.00;94538.59;5051499;28;20746;-82
2023/03/08 07:26:27;;;;;;;25.23;13.93;;;;;;;1.42;100.00;94539.19;5087547;28;20448;-82
2023/03/08 07:28:52;;;;;;;24.60;13.73;;;;;;;1.37;100.00;94531.03;5067990;28;21013;-82
2023/03/08 07:31:18;;;;;;;25.90;15.47;;;;;;;1.50;100.00;94526.31;5088308;28;20459;-82
2023/03/08 07:33:44;;;;;;;25.03;14.33;;;;;;;1.56;100.00;94510.19;5067170;28;20087;-82
2023/03/08 07:36:10;;;;;;;25.80;16.37;;;;;;;1.52;100.00;94508.03;5066585;28;20043;-83
2023/03/08 07:38:36;;;;;;;25.83;15.23;;;;;;;1.50;100.00;94510.75;5047350;28;20476;-82
2023/03/08 07:41:01;;;;;;;26.70;14.53;;;;;;;1.52;100.00;94506.25;5065003;28;20044;-82
2023/03/08 07:43:30;;;;;;;34.27;15.50;;;;;;;1.59;100.00;94504.72;5050292;28;20103;-82
2023/03/08 07:46:00;;;;;;;26.97;14.37;;;;;;;1.76;100.00;94510.06;5050369;28;20072;-83
2023/03/08 07:48:26;;;;;;;23.83;15.03;;;;;;;1.57;100.00;94521.34;5051508;28;20502;-82
2023/03/08 07:50:53;;;;;;;27.43;15.30;;;;;;;1.62;100.00;94514.78;5050897;28;20503;-82
2023/03/08 07:53:18;;;;;;;28.63;16.97;;;;;;;1.60;100.00;94513.28;5048662;28;20459;-82
2023/03/08 07:55:44;;;;;;;28.07;17.40;;;;;;;1.53;100.00;94507.06;5049089;28;20052;-82
2023/03/08 07:58:10;;;;;;;30.17;18.40;;;;;;;1.51;100.00;94512.41;5049567;28;20025;-81
2023/03/08 08:00:35;;;;;;;31.03;18.53;;;;;;;1.44;100.00;94508.75;5072568;28;20028;-82
2023/03/08 08:03:01;;;;;;;25.63;15.73;;;;;;;1.31;100.00;94500.53;5054223;28;20051;-82
2023/03/08 08:05:27;;;;;;;30.90;20.20;;;;;;;1.37;100.00;94503.34;5064443;28;20029;-82
2023/03/08 08:07:52;;;;;;;29.93;16.77;;;;;;;1.49;100.00;94498.78;5065560;28;20131;-82
2023/03/08 08:10:18;;;;;;;36.00;21.23;;;;;;;1.44;100.00;94495.81;5048069;28;20040;-82
2023/03/08 08:12:44;;;;;;;28.80;18.10;;;;;;;1.31;100.00;94479.81;5048634;28;20029;-82
2023/03/08 08:15:16;;;;;;;30.43;17.67;;;;;;;1.34;100.00;94480.34;5065109;28;20483;-82
2023/03/08 08:17:42;;;;;;;30.40;18.60;;;;;;;1.34;100.00;94475.16;5049165;28;20053;-81
2023/03/08 08:20:08;;;;;;;29.13;16.37;;;;;;;1.31;100.00;94465.09;5049633;28;20552;-82
2023/03/08 08:22:36;;;;;;;28.50;16.63;;;;;;;1.37;100.00;94461.91;5053061;28;20123;-82
2023/03/08 08:25:04;;;;;;;33.77;19.17;;;;;;;1.22;100.00;94465.97;5057954;28;20526;-82
2023/03/08 08:27:29;;;;;;;32.03;18.40;;;;;;;1.22;100.00;94459.97;5050632;28;20475;-82
2023/03/08 08:29:55;;;;;;;29.83;17.20;;;;;;;1.22;100.00;94458.19;5058892;28;20475;-82
2023/03/08 08:32:21;;;;;;;35.77;18.37;;;;;;;1.26;100.00;94454.34;5060554;28;20174;-82
2023/03/08 08:34:46;;;;;;;29.27;17.30;;;;;;;1.24;100.00;94445.09;5037908;28;20040;-81
2023/03/08 08:37:12;;;;;;;31.00;17.63;;;;;;;1.09;100.00;94435.25;5039805;28;20029;-82
2023/03/08 08:39:38;;;;;;;29.93;18.03;;;;;;;1.07;100.00;94437.16;5053758;28;20040;-81
2023/03/08 08:42:04;;;;;;;31.67;19.27;;;;;;;1.16;100.00;94433.69;5055625;28;20402;-81
2023/03/08 08:44:30;;;;;;;33.17;18.23;;;;;;;1.07;100.00;94429.38;5055091;28;20474;-81
2023/03/08 08:46:56;;;;;;;31.30;18.27;;;;;;;1.05;100.00;94414.97;5052753;28;20039;-82
2023/03/08 08:49:22;;;;;;;29.03;16.47;;;;;;;1.04;100.00;94411.59;5071572;28;20025;-81
2023/03/08 08:51:47;;;;;;;33.07;19.43;;;;;;;1.02;100.00;94400.56;5055711;28;20848;-82
2023/03/08 08:54:13;;;;;;;33.47;18.40;;;;;;;0.98;100.00;94401.81;5069100;28;20041;-82
2023/03/08 08:56:41;;;;;;;33.63;20.90;;;;;;;0.93;100.00;94391.06;5053483;28;20037;-81
2023/03/08 08:59:08;;;;;;;39.73;20.50;;;;;;;1.00;100.00;94389.50;5053183;28;20028;-81
2023/03/08 09:01:45;;;;;;;32.73;18.67;;;;;;;1.01;100.00;94380.81;5052157;28;20554;-82
2023/03/08 09:04:12;;;;;;;35.00;18.67;;;;;;;1.03;100.00;94378.88;5051158;28;20548;-81
2023/03/08 09:06:39;;;;;;;31.97;18.17;;;;;;;1.06;100.00;94370.00;5085341;28;20471;-81
2023/03/08 09:09:05;;;;;;;32.87;18.83;;;;;;;1.03;100.00;94358.16;5058980;28;21004;-82
2023/03/08 09:11:32;;;;;;;30.97;19.17;;;;;;;1.03;100.00;94336.66;5068367;28;20526;-81
2023/03/08 09:13:58;;;;;;;32.33;19.20;;;;;;;1.07;100.00;94327.63;5050527;28;20566;-81
2023/03/08 09:16:34;;;;;;;32.87;19.40;;;;;;;0.98;100.00;94323.34;5051481;28;21012;-81
2023/03/08 09:19:02;;;;;;;36.90;20.03;;;;;;;1.05;100.00;94311.44;5051530;28;20428;-81
2023/03/08 09:21:29;;;;;;;33.93;20.17;;;;;;;1.10;100.00;94312.59;5051372;28;20471;-81
2023/03/08 09:23:58;;;;;;;32.80;20.30;;;;;;;1.26;100.00;94317.13;5053797;28;20460;-81
2023/03/08 09:26:23;;;;;;;36.90;21.00;;;;;;;1.56;100.00;94313.28;5050000;28;20456;-81
2023/03/08 09:28:49;;;;;;;37.93;19.60;;;;;;;1.57;100.00;94307.13;5032627;28;20455;-81
2023/03/08 09:31:16;;;;;;;39.83;20.83;;;;;;;1.64;100.00;94305.59;5051796;28;20025;-81
2023/03/08 09:33:47;;;;;;;32.53;18.47;;;;;;;1.81;100.00;94303.06;5050836;28;20040;-81
2023/03/08 09:36:13;;;;;;;36.53;19.90;;;;;;;1.91;100.00;94301.19;5051915;28;20957;-81
2023/03/08 09:38:58;;;;;;;33.00;19.63;;;;;;;2.12;100.00;94299.03;5057017;28;20566;-81
2023/03/08 09:41:56;;;;;;;29.17;17.13;;;;;;;2.20;100.00;94289.69;5053712;28;20028;-81
2023/03/08 09:44:51;;;;;;;32.63;18.80;;;;;;;2.37;100.00;94280.97;5084097;28;21231;-82
2023/03/08 09:47:40;;;;;;;29.97;18.63;;;;;;;2.36;100.00;94284.56;5036736;28;21047;-82
2023/03/08 09:50:29;;;;;;;32.93;17.10;;;;;;;2.57;100.00;94263.38;5036048;28;20498;-82
2023/03/08 09:52:59;;;;;;;28.90;17.03;;;;;;;2.76;100.00;94260.50;5029284;28;20468;-81
2023/03/08 09:55:32;;;;;;;28.40;17.87;;;;;;;2.82;100.00;94254.66;5053385;28;20502;-82
2023/03/08 09:58:12;;;;;;;26.33;16.90;;;;;;;3.11;100.00;94242.16;5051182;28;20512;-82
2023/03/08 10:00:39;;;;;;;24.53;12.73;;;;;;;3.21;100.00;94242.81;5033947;28;20070;-82
2023/03/08 10:03:26;;;;;;;23.23;12.80;;;;;;;3.34;100.00;94245.72;5049869;28;20456;-82
2023/03/08 10:05:55;;;;;;;21.50;13.10;;;;;;;3.40;100.00;94228.69;5051225;28;20037;-82
2023/03/08 10:08:55;;;;;;;23.87;13.70;;;;;;;3.42;100.00;94235.34;5042175;28;20468;-81
2023/03/08 10:11:39;;;;;;;21.63;13.27;;;;;;;3.51;100.00;94229.16;5077101;28;20386;-81
2023/03/08 10:14:20;;;;;;;24.50;12.60;;;;;;;3.44;100.00;94223.00;5052656;28;20988;-82
2023/03/08 10:16:52;;;;;;;20.30;11.00;;;;;;;3.41;100.00;94243.28;5068919;28;20444;-82
2023/03/08 10:19:36;;;;;;;19.52;12.93;;;;;;;3.50;100.00;94217.13;5066241;28;20060;-82
2023/03/08 10:22:20;;;;;;;19.33;10.82;;;;;;;3.45;100.00;94222.00;5054783;28;20094;-82
2023/03/08 10:24:54;;;;;;;19.97;11.60;;;;;;;3.48;100.00;94219.06;5054804;28;20090;-82
2023/03/08 10:27:24;;;;;;;18.43;11.50;;;;;;;3.58;100.00;94218.09;5043937;28;20102;-83
2023/03/08 10:30:10;;;;;;;19.33;10.63;;;;;;;3.66;100.00;94216.28;5051310;28;20449;-82
2023/03/08 10:32:42;;;;;;;20.40;10.70;;;;;;;3.69;100.00;94207.34;5051255;28;20052;-83
2023/03/08 10:35:08;;;;;;;17.02;9.82;;;;;;;3.75;100.00;94191.88;5041656;28;20033;-82
2023/03/08 10:37:33;;;;;;;19.67;11.80;;;;;;;3.79;100.00;94197.59;5050637;28;20044;-81
2023/03/08 10:40:04;;;;;;;19.13;11.80;;;;;;;3.80;100.00;94188.00;5067143;28;20033;-81
2023/03/08 10:42:31;;;;;;;20.23;12.23;;;;;;;3.84;100.00;94181.47;5050209;28;20025;-82
2023/03/08 10:45:12;;;;;;;17.80;10.83;;;;;;;3.93;100.00;94186.47;5049924;28;20621;-82
2023/03/08 10:47:38;;;;;;;20.57;11.03;;;;;;;4.00;100.00;94187.41;5084315;28;20044;-82
2023/03/08 10:50:16;;;;;;;19.23;11.43;;;;;;;4.07;100.00;94178.94;5051655;28;20028;-82
2023/03/08 10:52:44;;;;;;;15.50;10.37;;;;;;;4.06;100.00;94170.31;5035339;28;20045;-82
2023/03/08 10:55:16;;;;;;;19.73;10.60;;;;;;;4.08;100.00;94177.94;5050587;28;20089;-81
2023/03/08 10:57:48;;;;;;;19.57;10.17;;;;;;;4.17;100.00;94184.75;5051582;28;20040;-82
2023/03/08 11:00:41;;;;;;;17.27;10.20;;;;;;;4.13;100.00;94165.25;5077272;28;20025;-82
2023/03/08 11:03:19;;;;;;;13.80;8.70;;;;;;;4.22;100.00;94172.00;5067906;28;20033;-82
2023/03/08 11:05:56;;;;;;;21.20;11.50;;;;;;;4.24;100.00;94172.66;5047482;28;20041;-82
2023/03/08 11:08:49;;;;;;;19.73;9.77;;;;;;;4.32;100.00;94174.41;5061893;28;20029;-82
2023/03/08 11:11:14;;;;;;;17.73;10.53;;;;;;;4.39;100.00;94168.38;5068966;28;20450;-82
2023/03/08 11:13:45;;;;;;;17.30;10.00;;;;;;;4.47;100.00;94157.09;5036131;28;20041;-82
2023/03/08 11:16:32;;;;;;;16.53;9.73;;;;;;;4.51;100.00;94160.16;5041497;28;20055;-82
2023/03/08 11:19:03;;;;;;;16.03;8.97;;;;;;;4.60;100.00;94162.53;5049721;28;20524;-82
2023/03/08 11:22:01;;;;;;;18.53;9.83;;;;;;;4.62;100.00;94164.94;5048166;28;20029;-81
2023/03/08 11:25:10;;;;;;;15.57;9.27;;;;;;;4.69;100.00;94151.09;5044797;28;20060;-82
2023/03/08 11:27:57;;;;;;;15.20;9.67;;;;;;;4.83;100.00;94149.50;5051759;28;20037;-81
2023/03/08 11:30:41;;;;;;;16.07;9.10;;;;;;;4.91;100.00;94149.41;5042396;28;20060;-82
2023/03/08 11:33:31;;;;;;;19.08;9.18;;;;;;;5.05;100.00;94167.88;5057227;28;20119;-88
2023/03/08 11:36:22;;;;;;;14.83;9.37;;;;;;;5.09;100.00;94156.09;5052816;28;20045;-87